createdAt,value
2019-05-20T00:02:25.868Z,85.20
2019-05-20T00:05:09.439Z,68.93
2019-05-20T00:07:44.022Z,68.83
2019-05-20T00:10:22.032Z,71.87
2019-05-20T00:13:00.249Z,55.77
2019-05-20T00:15:44.125Z,52.43
2019-05-20T00:18:21.296Z,52.37
2019-05-20T00:20:55.295Z,59.37
2019-05-20T00:23:39.386Z,63.30
2019-05-20T00:26:18.134Z,55.77
2019-05-20T00:29:04.645Z,59.43
2019-05-20T00:31:39.367Z,63.20
2019-05-20T00:34:12.024Z,54.53
2019-05-20T00:36:45.455Z,59.83
2019-05-20T00:39:22.313Z,58.40
2019-05-20T00:42:09.466Z,52.28
2019-05-20T00:48:16.886Z,154.68
2019-05-20T00:50:56.000Z,93.30
2019-05-20T00:53:29.227Z,80.23
2019-05-20T00:56:01.902Z,69.17
2019-05-20T00:58:34.564Z,64.37
2019-05-20T01:01:07.870Z,77.80
2019-05-20T01:03:41.617Z,78.83
2019-05-20T01:06:15.027Z,79.10
2019-05-20T01:08:49.954Z,66.43
2019-05-20T01:11:24.468Z,75.93
2019-05-20T01:13:57.039Z,88.00
2019-05-20T01:16:29.750Z,128.73
2019-05-20T01:19:02.349Z,122.20
2019-05-20T01:21:35.866Z,126.83
2019-05-20T01:24:09.160Z,123.53
2019-05-20T01:26:41.688Z,94.83
2019-05-20T01:29:14.323Z,89.27
2019-05-20T01:31:47.122Z,108.83
2019-05-20T01:34:20.320Z,89.67
2019-05-20T01:36:53.717Z,96.30
2019-05-20T01:39:27.096Z,78.17
2019-05-20T01:41:59.848Z,75.77
2019-05-20T01:44:33.373Z,73.73
2019-05-20T01:47:07.924Z,95.07
2019-05-20T01:49:41.937Z,160.40
2019-05-20T01:52:15.169Z,203.00
2019-05-20T01:54:56.745Z,218.17
2019-05-20T01:57:50.497Z,244.93
2019-05-20T02:00:24.625Z,252.98
2019-05-20T02:02:57.334Z,164.70
2019-05-20T02:05:29.959Z,171.20
2019-05-20T02:08:07.507Z,175.87
2019-05-20T02:10:40.272Z,143.67
2019-05-20T02:13:12.773Z,136.40
2019-05-20T02:15:54.336Z,110.88
2019-05-20T02:18:27.161Z,129.50
2019-05-20T02:20:59.727Z,220.20
2019-05-20T02:23:32.294Z,255.97
2019-05-20T02:26:04.872Z,216.60
2019-05-20T02:28:37.468Z,144.93
2019-05-20T02:31:10.052Z,97.50
2019-05-20T02:33:51.599Z,134.07
2019-05-20T02:36:26.964Z,199.00
2019-05-20T02:38:59.705Z,166.80
2019-05-20T02:41:32.460Z,263.90
2019-05-20T02:44:05.016Z,124.23
2019-05-20T02:46:37.816Z,181.97
2019-05-20T02:49:10.392Z,249.33
2019-05-20T02:51:42.999Z,182.53
2019-05-20T02:54:15.458Z,237.47
2019-05-20T02:56:48.081Z,187.87
2019-05-20T02:59:21.882Z,151.03
2019-05-20T03:01:54.746Z,261.77
2019-05-20T03:04:27.455Z,318.77
2019-05-20T03:07:00.237Z,296.00
2019-05-20T03:09:33.212Z,305.77
2019-05-20T03:12:05.833Z,389.60
2019-05-20T03:14:38.378Z,357.70
2019-05-20T03:17:11.087Z,353.87
2019-05-20T03:19:43.625Z,364.70
2019-05-20T03:22:18.519Z,303.23
2019-05-20T03:24:51.117Z,296.83
2019-05-20T03:27:25.762Z,350.13
2019-05-20T03:30:00.740Z,344.40
2019-05-20T03:32:36.587Z,364.58
2019-05-20T03:35:13.962Z,310.97
2019-05-20T03:37:48.633Z,306.50
2019-05-20T03:40:22.263Z,361.13
2019-05-20T03:42:54.966Z,359.23
2019-05-20T03:45:28.234Z,299.43
2019-05-20T03:48:00.991Z,295.53
2019-05-20T03:50:34.271Z,304.70
2019-05-20T03:53:07.381Z,315.90
2019-05-20T03:55:39.890Z,280.53
2019-05-20T03:58:13.798Z,316.55
2019-05-20T04:00:47.889Z,273.07
2019-05-20T04:03:20.657Z,269.83
2019-05-20T04:05:55.143Z,269.17
2019-05-20T04:08:30.653Z,245.00
2019-05-20T04:11:03.745Z,264.67
2019-05-20T04:13:36.483Z,231.80
2019-05-20T04:16:10.008Z,227.80
2019-05-20T04:18:43.871Z,229.73
2019-05-20T04:21:16.504Z,233.03
2019-05-20T04:23:49.399Z,216.93
2019-05-20T04:26:22.137Z,242.17
2019-05-20T04:28:55.354Z,217.67
2019-05-20T04:31:28.007Z,202.07
2019-05-20T04:34:01.029Z,206.00
2019-05-20T04:36:33.567Z,198.30
2019-05-20T04:39:08.675Z,193.47
2019-05-20T04:41:41.427Z,206.30
2019-05-20T04:44:14.521Z,206.20
2019-05-20T04:46:47.222Z,190.02
2019-05-20T04:49:19.901Z,179.93
2019-05-20T04:51:52.800Z,157.13
2019-05-20T04:54:25.534Z,160.80
2019-05-20T04:56:58.073Z,179.60
2019-05-20T04:59:30.510Z,183.37
2019-05-20T05:02:03.241Z,162.13
2019-05-20T05:04:35.809Z,155.17
2019-05-20T05:07:08.672Z,171.23
2019-05-20T05:09:41.145Z,163.30
2019-05-20T05:12:17.742Z,156.07
2019-05-20T05:14:50.259Z,157.73
2019-05-20T05:17:22.853Z,148.63
2019-05-20T05:19:55.691Z,151.83
2019-05-20T05:22:28.421Z,175.20
2019-05-20T05:25:00.986Z,178.03
2019-05-20T05:27:34.412Z,175.77
2019-05-20T05:30:07.955Z,181.33
2019-05-20T05:32:41.563Z,172.07
2019-05-20T05:35:17.403Z,165.07
2019-05-20T05:37:50.148Z,159.93
2019-05-20T05:40:32.565Z,148.87
2019-05-20T05:43:05.281Z,166.67
2019-05-20T05:45:39.285Z,162.67
2019-05-20T05:48:12.133Z,158.20
2019-05-20T05:50:44.768Z,163.67
2019-05-20T05:53:17.813Z,169.77
2019-05-20T05:55:52.860Z,162.73
2019-05-20T05:58:26.471Z,149.37
2019-05-20T06:00:59.005Z,151.20
2019-05-20T06:03:31.616Z,156.83
2019-05-20T06:06:12.065Z,197.97
2019-05-20T06:08:46.085Z,212.20
2019-05-20T06:11:19.383Z,193.13
2019-05-20T06:13:53.179Z,199.47
2019-05-20T06:16:36.373Z,204.60
2019-05-20T06:19:09.950Z,210.27
2019-05-20T06:21:42.688Z,217.17
2019-05-20T06:24:15.250Z,212.40
2019-05-20T06:26:48.717Z,202.10
2019-05-20T06:29:21.424Z,180.10
2019-05-20T06:31:54.137Z,192.10
2019-05-20T06:34:26.885Z,179.40
2019-05-20T06:37:08.143Z,166.33
2019-05-20T06:39:40.758Z,159.73
2019-05-20T06:42:13.427Z,163.30
2019-05-20T06:44:52.940Z,170.20
2019-05-20T06:47:28.933Z,153.73
2019-05-20T06:50:05.800Z,155.05
2019-05-20T06:52:40.621Z,100.80
2019-05-20T06:55:14.902Z,89.37
2019-05-20T06:57:48.799Z,86.90
2019-05-20T07:00:35.872Z,91.25
2019-05-20T07:03:08.775Z,94.37
2019-05-20T07:05:41.398Z,91.87
2019-05-20T07:08:13.931Z,101.07
2019-05-20T07:10:47.700Z,100.80
2019-05-20T07:13:22.484Z,100.30
2019-05-20T07:15:56.865Z,103.00
2019-05-20T07:18:30.354Z,105.30
2019-05-20T07:21:03.643Z,105.83
2019-05-20T07:23:36.342Z,108.67
2019-05-20T07:26:09.059Z,112.90
2019-05-20T07:28:43.315Z,114.30
2019-05-20T07:31:15.966Z,120.23
2019-05-20T07:33:48.734Z,117.80
2019-05-20T07:36:26.755Z,121.67
2019-05-20T07:39:02.274Z,126.10
2019-05-20T07:41:41.165Z,117.17
2019-05-20T07:44:14.599Z,122.40
2019-05-20T07:46:48.349Z,121.67
2019-05-20T07:49:23.950Z,105.13
2019-05-20T07:51:57.948Z,117.10
2019-05-20T07:54:31.270Z,98.83
2019-05-20T07:57:12.013Z,99.63
2019-05-20T07:59:52.824Z,96.10
2019-05-20T08:02:28.946Z,103.27
2019-05-20T08:05:05.423Z,98.50
2019-05-20T08:07:51.462Z,98.97
2019-05-20T08:10:26.594Z,104.13
2019-05-20T08:12:59.236Z,106.77
2019-05-20T08:15:32.528Z,103.53
2019-05-20T08:18:05.422Z,78.73
2019-05-20T08:20:38.002Z,72.20
2019-05-20T08:23:11.718Z,72.57
2019-05-20T08:25:45.766Z,73.68
2019-05-20T08:28:18.407Z,66.00
2019-05-20T08:30:53.275Z,65.40
2019-05-20T08:33:27.980Z,70.10
2019-05-20T08:36:00.671Z,70.57
2019-05-20T08:38:37.733Z,69.23
2019-05-20T08:41:12.163Z,66.90
2019-05-20T08:43:45.566Z,73.23
2019-05-20T08:46:18.050Z,80.50
2019-05-20T08:48:51.374Z,83.53
2019-05-20T08:51:24.601Z,84.63
2019-05-20T08:54:00.733Z,99.43
2019-05-20T08:56:35.647Z,108.40
2019-05-20T08:59:08.348Z,108.60
2019-05-20T09:01:43.857Z,98.20
2019-05-20T09:04:18.591Z,94.93
2019-05-20T09:06:54.372Z,98.87
2019-05-20T09:09:29.237Z,99.90
2019-05-20T09:12:04.476Z,100.83
2019-05-20T09:14:43.057Z,96.87
2019-05-20T09:17:17.980Z,93.17
2019-05-20T09:19:50.781Z,95.30
2019-05-20T09:22:25.807Z,92.63
2019-05-20T09:24:58.578Z,93.60
2019-05-20T09:27:31.382Z,94.63
2019-05-20T09:30:07.324Z,99.87
2019-05-20T09:32:43.386Z,89.17
2019-05-20T09:35:16.740Z,89.10
2019-05-20T09:37:49.373Z,82.50
2019-05-20T09:40:38.695Z,65.10
2019-05-20T09:43:12.101Z,60.13
2019-05-20T09:45:44.704Z,65.60
2019-05-20T09:48:19.805Z,57.50
2019-05-20T09:50:55.809Z,55.33
2019-05-20T09:53:46.885Z,60.63
2019-05-20T09:56:24.473Z,58.42
2019-05-20T09:59:00.771Z,49.63
2019-05-20T10:01:38.663Z,60.33
2019-05-20T10:04:26.091Z,60.40
2019-05-20T10:07:19.344Z,68.43
2019-05-20T10:09:58.652Z,58.97
2019-05-20T10:12:45.476Z,52.40
2019-05-20T10:15:24.967Z,46.67
2019-05-20T10:18:36.075Z,47.37
2019-05-20T10:21:14.162Z,49.00
2019-05-20T10:23:57.781Z,49.37
2019-05-20T10:26:56.025Z,41.53
2019-05-20T10:29:31.466Z,50.23
2019-05-20T10:32:04.792Z,59.13
2019-05-20T10:34:39.054Z,48.17
2019-05-20T10:37:11.750Z,44.80
2019-05-20T10:39:45.070Z,48.17
2019-05-20T10:42:29.605Z,46.70
2019-05-20T10:45:07.387Z,45.97
2019-05-20T10:47:40.016Z,40.87
2019-05-20T10:50:16.871Z,42.93
2019-05-20T10:52:50.414Z,42.63
2019-05-20T10:55:26.021Z,47.43
2019-05-20T10:58:00.823Z,48.10
2019-05-20T11:00:36.718Z,54.92
2019-05-20T11:03:13.247Z,50.83
2019-05-20T11:05:48.039Z,41.63
2019-05-20T11:08:21.655Z,44.55
2019-05-20T11:10:55.975Z,42.87
2019-05-20T11:13:30.069Z,41.77
2019-05-20T11:16:19.598Z,42.67
2019-05-20T11:18:57.880Z,48.10
2019-05-20T11:21:35.407Z,55.22
2019-05-20T11:24:09.112Z,52.67
2019-05-20T11:26:42.859Z,54.73
2019-05-20T11:29:15.556Z,57.30
2019-05-20T11:31:48.566Z,57.60
2019-05-20T11:34:21.950Z,54.13
2019-05-20T11:36:54.518Z,51.03
2019-05-20T11:39:33.224Z,49.10
2019-05-20T11:42:12.717Z,58.70
2019-05-20T11:44:45.730Z,57.30
2019-05-20T11:47:18.818Z,52.00
2019-05-20T11:49:54.399Z,52.37
2019-05-20T11:52:28.618Z,56.03
2019-05-20T11:55:01.912Z,55.53
2019-05-20T11:57:35.649Z,58.70
2019-05-20T12:00:13.679Z,55.90
2019-05-20T12:02:47.010Z,59.93
2019-05-20T12:05:22.431Z,57.83
2019-05-20T12:07:58.668Z,56.67
2019-05-20T12:10:32.984Z,61.17
2019-05-20T12:13:09.235Z,59.73
2019-05-20T12:15:43.205Z,53.60
2019-05-20T12:18:17.006Z,53.93
2019-05-20T12:20:51.236Z,56.03
2019-05-20T12:23:25.752Z,58.85
2019-05-20T12:25:58.795Z,55.13
2019-05-20T12:28:31.606Z,49.57
2019-05-20T12:31:06.237Z,56.00
2019-05-20T12:33:42.225Z,62.77
2019-05-20T12:36:17.786Z,66.80
2019-05-20T12:38:53.848Z,61.60
2019-05-20T12:41:28.042Z,62.00
2019-05-20T12:44:11.930Z,60.47
2019-05-20T12:46:50.567Z,59.47
2019-05-20T12:49:24.789Z,68.00
2019-05-20T12:52:00.106Z,66.40
2019-05-20T12:54:33.488Z,64.93
2019-05-20T12:57:07.776Z,67.22
2019-05-20T12:59:41.481Z,76.10
2019-05-20T13:02:17.525Z,74.55
2019-05-20T13:04:50.875Z,70.93
2019-05-20T13:07:27.768Z,63.83
2019-05-20T13:10:03.078Z,60.23
2019-05-20T13:12:37.862Z,58.67
2019-05-20T13:15:16.373Z,58.57
2019-05-20T13:17:49.477Z,54.50
2019-05-20T13:20:23.847Z,56.17
2019-05-20T13:22:58.278Z,53.67
2019-05-20T13:25:32.377Z,54.23
2019-05-20T13:28:12.428Z,55.73
2019-05-20T13:30:46.446Z,54.53
2019-05-20T13:33:21.881Z,53.93
2019-05-20T13:35:55.552Z,55.77
2019-05-20T13:38:28.145Z,55.00
2019-05-20T13:41:01.692Z,59.72
2019-05-20T13:43:36.374Z,53.67
2019-05-20T13:46:08.996Z,57.60
2019-05-20T13:48:41.720Z,51.27
2019-05-20T13:51:16.535Z,52.03
2019-05-20T13:53:49.166Z,55.07
2019-05-20T13:56:23.551Z,48.80
2019-05-20T13:58:57.808Z,50.33
2019-05-20T14:01:34.169Z,54.90
2019-05-20T14:04:12.231Z,54.53
2019-05-20T14:06:47.097Z,56.73
2019-05-20T14:09:21.207Z,55.03
2019-05-20T14:11:56.051Z,55.17
2019-05-20T14:14:29.130Z,54.00
2019-05-20T14:17:07.498Z,59.47
2019-05-20T14:19:41.176Z,58.40
2019-05-20T14:22:14.954Z,53.07
2019-05-20T14:24:49.497Z,55.83
2019-05-20T14:27:22.257Z,54.40
2019-05-20T14:29:56.430Z,52.53
2019-05-20T14:32:32.562Z,58.20
2019-05-20T14:35:06.328Z,57.58
2019-05-20T14:37:39.949Z,58.30
2019-05-20T14:40:13.008Z,60.80
2019-05-20T14:42:45.760Z,56.00
2019-05-20T14:45:19.603Z,58.55
2019-05-20T14:47:56.153Z,55.33
2019-05-20T14:50:28.941Z,57.03
2019-05-20T14:53:03.284Z,55.67
2019-05-20T14:55:42.218Z,58.23
2019-05-20T14:58:26.337Z,55.60
2019-05-20T15:01:06.360Z,56.87
2019-05-20T15:04:08.135Z,57.17
2019-05-20T15:06:48.269Z,56.03
2019-05-20T15:09:29.164Z,56.20
2019-05-20T15:12:10.312Z,53.43
2019-05-20T15:14:44.849Z,54.67
2019-05-20T15:17:23.879Z,55.37
2019-05-20T15:20:00.648Z,56.90
2019-05-20T15:22:33.695Z,60.60
2019-05-20T15:25:08.989Z,58.80
2019-05-20T15:27:43.749Z,58.20
2019-05-20T15:30:21.752Z,63.47
2019-05-20T15:32:56.588Z,60.70
2019-05-20T15:35:32.284Z,62.60
2019-05-20T15:38:13.594Z,63.30
2019-05-20T15:40:49.499Z,59.30
2019-05-20T15:43:26.286Z,60.77
2019-05-20T15:46:03.322Z,60.80
2019-05-20T15:48:56.817Z,62.03
2019-05-20T15:51:42.519Z,59.03
2019-05-20T15:54:17.724Z,58.23
2019-05-20T15:56:53.464Z,51.53
2019-05-20T15:59:26.796Z,53.43
2019-05-20T16:02:01.273Z,52.23
2019-05-20T16:04:34.702Z,54.57
2019-05-20T16:07:14.044Z,55.50
2019-05-20T16:09:52.035Z,58.40
2019-05-20T16:12:25.463Z,52.63
2019-05-20T16:14:58.146Z,54.70
2019-05-20T16:17:33.829Z,60.27
2019-05-20T16:20:10.564Z,49.97
2019-05-20T16:22:47.618Z,53.63
2019-05-20T16:25:23.494Z,50.17
2019-05-20T16:27:58.550Z,51.50
2019-05-20T16:30:33.323Z,46.93
2019-05-20T16:33:08.772Z,48.43
2019-05-20T16:35:48.908Z,49.20
2019-05-20T16:38:22.969Z,47.77
2019-05-20T16:40:59.353Z,48.60
2019-05-20T16:43:35.105Z,48.03
2019-05-20T16:46:09.281Z,45.97
2019-05-20T16:48:46.535Z,48.33
2019-05-20T16:51:24.474Z,49.83
2019-05-20T16:54:01.251Z,46.47
2019-05-20T16:56:38.500Z,47.60
2019-05-20T16:59:13.553Z,42.43
2019-05-20T17:01:47.423Z,46.33
2019-05-20T17:04:22.225Z,42.10
2019-05-20T17:06:55.072Z,44.13
2019-05-20T17:09:28.965Z,44.00
2019-05-20T17:12:03.036Z,47.63
2019-05-20T17:14:37.910Z,51.47
2019-05-20T17:17:13.543Z,46.57
2019-05-20T17:19:49.470Z,47.40
2019-05-20T17:22:23.350Z,50.10
2019-05-20T17:24:59.491Z,47.07
2019-05-20T17:27:34.043Z,46.50
2019-05-20T17:30:16.913Z,47.13
2019-05-20T17:32:50.477Z,49.67
2019-05-20T17:35:25.959Z,49.50
2019-05-20T17:37:59.727Z,47.07
2019-05-20T17:40:34.379Z,46.83
2019-05-20T17:43:09.734Z,48.67
2019-05-20T17:45:46.177Z,46.90
2019-05-20T17:48:20.588Z,49.40
2019-05-20T17:50:55.059Z,47.65
2019-05-20T17:53:31.394Z,47.53
2019-05-20T17:56:05.078Z,46.90
2019-05-20T17:58:38.609Z,47.13
2019-05-20T18:01:15.882Z,46.20
2019-05-20T18:03:53.242Z,47.30
2019-05-20T18:06:35.496Z,43.03
2019-05-20T18:09:13.836Z,42.40
2019-05-20T18:11:54.879Z,41.13
2019-05-20T18:14:30.188Z,43.00
2019-05-20T18:17:06.346Z,41.43
2019-05-20T18:19:42.765Z,43.00
2019-05-20T18:22:18.534Z,46.60
2019-05-20T18:24:51.671Z,47.17
2019-05-20T18:27:27.225Z,38.30
2019-05-20T18:30:08.338Z,39.90
2019-05-20T18:32:48.176Z,44.77
2019-05-20T18:35:22.191Z,45.43
2019-05-20T18:37:59.710Z,41.40
2019-05-20T18:40:33.524Z,46.50
2019-05-20T18:43:13.026Z,46.35
2019-05-20T18:45:57.148Z,43.50
2019-05-20T18:48:32.066Z,42.40
2019-05-20T18:51:09.340Z,47.57
2019-05-20T18:53:45.864Z,42.50
2019-05-20T18:56:27.136Z,42.42
2019-05-20T18:59:01.305Z,40.33
2019-05-20T19:01:46.117Z,44.23
2019-05-20T19:04:34.895Z,40.20
2019-05-20T19:07:08.339Z,42.57
2019-05-20T19:09:42.630Z,39.97
2019-05-20T19:12:16.628Z,41.87
2019-05-20T19:14:50.756Z,39.63
2019-05-20T19:17:27.486Z,40.53
2019-05-20T19:20:02.615Z,39.97
2019-05-20T19:22:37.370Z,38.73
2019-05-20T19:25:14.191Z,41.87
2019-05-20T19:27:47.806Z,39.97
2019-05-20T19:30:21.321Z,40.83
2019-05-20T19:32:57.262Z,41.93
2019-05-20T19:35:43.002Z,36.50
2019-05-20T19:38:18.505Z,41.30
2019-05-20T19:40:56.027Z,41.00
2019-05-20T19:43:33.706Z,42.43
2019-05-20T19:46:10.327Z,41.20
2019-05-20T19:48:43.734Z,43.83
2019-05-20T19:51:20.588Z,40.13
2019-05-20T19:53:54.488Z,45.80
2019-05-20T19:56:28.725Z,47.43
2019-05-20T19:59:02.471Z,48.30
2019-05-20T20:01:36.444Z,50.67
2019-05-20T20:04:14.847Z,49.47
2019-05-20T20:06:47.657Z,52.55
2019-05-20T20:09:21.917Z,50.13
2019-05-20T20:12:09.790Z,50.30
2019-05-20T20:14:52.354Z,50.65
2019-05-20T20:17:31.925Z,48.63
2019-05-20T20:20:07.636Z,50.07
2019-05-20T20:22:42.842Z,49.87
2019-05-20T20:25:17.201Z,48.17
2019-05-20T20:27:51.954Z,53.33
2019-05-20T20:30:25.157Z,48.47
2019-05-20T20:33:01.985Z,54.53
2019-05-20T20:35:38.327Z,51.93
2019-05-20T20:38:11.959Z,55.80
2019-05-20T20:40:46.675Z,53.33
2019-05-20T20:43:20.833Z,56.40
2019-05-20T20:45:57.062Z,60.95
2019-05-20T20:48:33.340Z,52.33
2019-05-20T20:51:06.119Z,56.50
2019-05-20T20:53:43.733Z,55.97
2019-05-20T20:56:25.303Z,58.73
2019-05-20T20:58:58.366Z,62.00
2019-05-20T21:01:34.606Z,62.07
2019-05-20T21:04:18.331Z,67.70
2019-05-20T21:07:07.131Z,68.90
2019-05-20T21:09:42.825Z,71.80
2019-05-20T21:12:18.643Z,69.23
2019-05-20T21:14:56.114Z,70.57
2019-05-20T21:17:30.823Z,78.33
2019-05-20T21:20:06.033Z,78.33
2019-05-20T21:22:39.757Z,88.33
2019-05-20T21:25:13.528Z,88.37
2019-05-20T21:27:46.322Z,96.00
2019-05-20T21:30:19.737Z,84.47
2019-05-20T21:33:08.268Z,107.28
2019-05-20T21:35:45.190Z,100.25
2019-05-20T21:38:20.630Z,93.43
2019-05-20T21:40:55.198Z,95.57
2019-05-20T21:43:27.674Z,109.67
2019-05-20T21:46:01.883Z,119.20
2019-05-20T21:48:36.000Z,112.87
2019-05-20T21:51:10.639Z,127.03
2019-05-20T21:53:45.042Z,135.02
2019-05-20T21:56:23.792Z,133.20
2019-05-20T21:58:56.918Z,140.87
2019-05-20T22:01:31.439Z,140.00
2019-05-20T22:04:08.391Z,137.47
2019-05-20T22:06:41.080Z,137.80
2019-05-20T22:09:14.653Z,145.77
2019-05-20T22:11:47.495Z,132.00
2019-05-20T22:14:21.059Z,129.97
2019-05-20T22:16:55.796Z,143.35
2019-05-20T22:19:29.428Z,113.53
2019-05-20T22:22:22.548Z,121.32
2019-05-20T22:24:55.423Z,94.80
2019-05-20T22:27:28.194Z,86.03
2019-05-20T22:30:04.393Z,78.17
2019-05-20T22:32:37.555Z,70.70
2019-05-20T22:35:10.342Z,65.70
2019-05-20T22:37:42.946Z,69.57
2019-05-20T22:40:20.047Z,66.80
2019-05-20T22:42:55.012Z,68.33
2019-05-20T22:45:28.622Z,63.23
2019-05-20T22:48:01.504Z,61.30
2019-05-20T22:50:33.981Z,61.17
2019-05-20T22:53:08.765Z,61.53
2019-05-20T22:55:42.685Z,55.73
2019-05-20T22:58:22.146Z,52.10
2019-05-20T23:00:56.535Z,51.23
2019-05-20T23:03:29.899Z,56.60
2019-05-20T23:06:02.592Z,56.43
2019-05-20T23:08:35.237Z,54.40
2019-05-20T23:11:07.767Z,54.87
2019-05-20T23:13:41.185Z,59.60
2019-05-20T23:16:13.728Z,56.58
2019-05-20T23:18:49.707Z,53.43
2019-05-20T23:21:23.964Z,54.17
2019-05-20T23:23:56.558Z,54.90
2019-05-20T23:26:30.078Z,61.75
2019-05-20T23:29:03.434Z,61.75
2019-05-20T23:31:35.996Z,59.93
2019-05-20T23:34:13.138Z,59.83
2019-05-20T23:36:46.710Z,69.30
2019-05-20T23:39:20.711Z,75.77
2019-05-20T23:41:53.226Z,75.53
2019-05-20T23:44:25.771Z,72.27
2019-05-20T23:46:58.431Z,67.17
2019-05-20T23:49:31.758Z,80.20
2019-05-20T23:52:04.193Z,80.57
2019-05-20T23:54:37.022Z,90.13
2019-05-20T23:57:10.674Z,112.67
2019-05-20T23:59:43.746Z,106.03
